sensor_id;sensor_type;location;lat;lon;timestamp;pressure;altitude;pressure_sealevel;temperature;humidity
23176;BME280;19910;42.652;23.332;2023-04-05T00:02:01;94158.16;;;0.10;95.49
23176;BME280;19910;42.652;23.332;2023-04-05T00:04:27;94150.44;;;0.03;95.15
23176;BME280;19910;42.652;23.332;2023-04-05T00:06:59;94150.22;;;-0.06;95.20
23176;BME280;19910;42.652;23.332;2023-04-05T00:09:26;94147.50;;;0.05;95.52
23176;BME280;19910;42.652;23.332;2023-04-05T00:11:55;94153.41;;;-0.04;94.97
23176;BME280;19910;42.652;23.332;2023-04-05T00:14:22;94154.50;;;-0.05;95.79
23176;BME280;19910;42.652;23.332;2023-04-05T00:16:49;94149.66;;;0.03;95.70
23176;BME280;19910;42.652;23.332;2023-04-05T00:19:15;94145.94;;;0.04;95.47
23176;BME280;19910;42.652;23.332;2023-04-05T00:21:42;94149.91;;;0.06;95.63
23176;BME280;19910;42.652;23.332;2023-04-05T00:24:09;94145.97;;;-0.02;96.05
23176;BME280;19910;42.652;23.332;2023-04-05T00:26:40;94152.03;;;0.04;96.08
23176;BME280;19910;42.652;23.332;2023-04-05T00:29:09;94141.66;;;0.03;95.49
23176;BME280;19910;42.652;23.332;2023-04-05T00:31:36;94153.09;;;0.08;95.43
23176;BME280;19910;42.652;23.332;2023-04-05T00:34:03;94158.63;;;0.17;95.13
23176;BME280;19910;42.652;23.332;2023-04-05T00:36:33;94162.09;;;0.17;94.35
23176;BME280;19910;42.652;23.332;2023-04-05T00:39:00;94157.09;;;0.11;94.08
23176;BME280;19910;42.652;23.332;2023-04-05T00:41:27;94162.94;;;0.13;93.87
23176;BME280;19910;42.652;23.332;2023-04-05T00:43:53;94153.34;;;0.12;93.92
23176;BME280;19910;42.652;23.332;2023-04-05T00:46:22;94155.50;;;0.10;93.86
23176;BME280;19910;42.652;23.332;2023-04-05T00:48:49;94150.16;;;0.10;93.89
23176;BME280;19910;42.652;23.332;2023-04-05T00:51:16;94157.63;;;0.13;93.31
23176;BME280;19910;42.652;23.332;2023-04-05T00:53:44;94160.75;;;0.20;93.23
23176;BME280;19910;42.652;23.332;2023-04-05T00:56:12;94169.56;;;0.15;93.07
23176;BME280;19910;42.652;23.332;2023-04-05T00:58:41;94165.00;;;0.26;92.66
23176;BME280;19910;42.652;23.332;2023-04-05T01:01:12;94167.75;;;0.06;92.42
23176;BME280;19910;42.652;23.332;2023-04-05T01:03:46;94148.63;;;-0.02;93.14
23176;BME280;19910;42.652;23.332;2023-04-05T01:06:25;94168.03;;;0.04;93.28
23176;BME280;19910;42.652;23.332;2023-04-05T01:08:59;94165.06;;;0.11;93.76
23176;BME280;19910;42.652;23.332;2023-04-05T01:11:32;94164.00;;;0.12;93.07
23176;BME280;19910;42.652;23.332;2023-04-05T01:13:59;94153.03;;;0.18;92.49
23176;BME280;19910;42.652;23.332;2023-04-05T01:16:26;94173.00;;;0.21;92.52
23176;BME280;19910;42.652;23.332;2023-04-05T01:18:55;94166.03;;;0.30;92.74
23176;BME280;19910;42.652;23.332;2023-04-05T01:21:46;94170.34;;;0.16;92.77
23176;BME280;19910;42.652;23.332;2023-04-05T01:24:19;94167.72;;;0.11;93.46
23176;BME280;19910;42.652;23.332;2023-04-05T01:26:57;94176.72;;;0.20;93.05
23176;BME280;19910;42.652;23.332;2023-04-05T01:29:38;94178.34;;;0.21;93.09
23176;BME280;19910;42.652;23.332;2023-04-05T01:32:14;94177.72;;;0.34;92.82
23176;BME280;19910;42.652;23.332;2023-04-05T01:34:48;94171.34;;;0.30;92.72
23176;BME280;19910;42.652;23.332;2023-04-05T01:37:19;94172.41;;;0.34;92.51
23176;BME280;19910;42.652;23.332;2023-04-05T01:39:48;94161.28;;;0.27;92.78
23176;BME280;19910;42.652;23.332;2023-04-05T01:42:21;94161.75;;;0.34;92.25
23176;BME280;19910;42.652;23.332;2023-04-05T01:44:51;94160.47;;;0.26;91.85
23176;BME280;19910;42.652;23.332;2023-04-05T01:47:18;94160.47;;;0.26;92.05
23176;BME280;19910;42.652;23.332;2023-04-05T01:49:45;94170.56;;;0.29;91.62
23176;BME280;19910;42.652;23.332;2023-04-05T01:52:11;94157.00;;;0.26;91.64
23176;BME280;19910;42.652;23.332;2023-04-05T01:54:38;94168.13;;;0.38;91.45
23176;BME280;19910;42.652;23.332;2023-04-05T01:57:05;94168.66;;;0.40;91.22
23176;BME280;19910;42.652;23.332;2023-04-05T01:59:32;94163.88;;;0.32;91.50
23176;BME280;19910;42.652;23.332;2023-04-05T02:02:00;94163.88;;;0.32;91.44
23176;BME280;19910;42.652;23.332;2023-04-05T02:04:27;94173.97;;;0.40;91.10
23176;BME280;19910;42.652;23.332;2023-04-05T02:06:53;94175.28;;;0.43;90.83
23176;BME280;19910;42.652;23.332;2023-04-05T02:09:20;94166.00;;;0.40;90.80
23176;BME280;19910;42.652;23.332;2023-04-05T02:11:47;94168.94;;;0.39;90.91
23176;BME280;19910;42.652;23.332;2023-04-05T02:14:14;94170.22;;;0.41;90.94
23176;BME280;19910;42.652;23.332;2023-04-05T02:16:40;94171.34;;;0.35;91.24
23176;BME280;19910;42.652;23.332;2023-04-05T02:19:08;94175.00;;;0.44;90.92
23176;BME280;19910;42.652;23.332;2023-04-05T02:21:35;94176.66;;;0.40;91.25
23176;BME280;19910;42.652;23.332;2023-04-05T02:24:02;94171.31;;;0.40;90.68
23176;BME280;19910;42.652;23.332;2023-04-05T02:26:29;94161.72;;;0.39;90.87
23176;BME280;19910;42.652;23.332;2023-04-05T02:28:56;94171.78;;;0.47;91.00
23176;BME280;19910;42.652;23.332;2023-04-05T02:31:22;94180.91;;;0.36;90.31
23176;BME280;19910;42.652;23.332;2023-04-05T02:33:50;94174.00;;;0.35;90.47
23176;BME280;19910;42.652;23.332;2023-04-05T02:36:18;94171.31;;;0.40;90.69
23176;BME280;19910;42.652;23.332;2023-04-05T02:38:46;94172.34;;;0.44;90.63
23176;BME280;19910;42.652;23.332;2023-04-05T02:41:13;94168.59;;;0.45;90.48
23176;BME280;19910;42.652;23.332;2023-04-05T02:43:39;94171.84;;;0.37;90.69
23176;BME280;19910;42.652;23.332;2023-04-05T02:46:06;94168.13;;;0.38;91.12
23176;BME280;19910;42.652;23.332;2023-04-05T02:48:33;94171.13;;;0.26;91.25
23176;BME280;19910;42.652;23.332;2023-04-05T02:51:00;94163.34;;;0.35;91.00
23176;BME280;19910;42.652;23.332;2023-04-05T02:53:28;94165.00;;;0.26;91.16
23176;BME280;19910;42.652;23.332;2023-04-05T02:55:56;94177.78;;;0.24;91.31
23176;BME280;19910;42.652;23.332;2023-04-05T02:58:24;94164.47;;;0.24;91.12
23176;BME280;19910;42.652;23.332;2023-04-05T03:00:51;94165.00;;;0.26;91.21
23176;BME280;19910;42.652;23.332;2023-04-05T03:03:20;94167.63;;;0.31;91.61
23176;BME280;19910;42.652;23.332;2023-04-05T03:05:47;94164.69;;;0.32;91.35
23176;BME280;19910;42.652;23.332;2023-04-05T03:08:14;94167.06;;;0.39;91.27
23176;BME280;19910;42.652;23.332;2023-04-05T03:10:45;94165.66;;;0.47;91.14
23176;BME280;19910;42.652;23.332;2023-04-05T03:13:13;94158.78;;;0.41;91.48
23176;BME280;19910;42.652;23.332;2023-04-05T03:15:40;94169.16;;;0.42;91.25
23176;BME280;19910;42.652;23.332;2023-04-05T03:18:07;94155.03;;;0.42;91.50
23176;BME280;19910;42.652;23.332;2023-04-05T03:20:34;94159.28;;;0.43;90.66
23176;BME280;19910;42.652;23.332;2023-04-05T03:23:05;94153.75;;;0.39;90.80
23176;BME280;19910;42.652;23.332;2023-04-05T03:25:33;94159.53;;;0.46;90.70
23176;BME280;19910;42.652;23.332;2023-04-05T03:28:02;94164.13;;;0.41;90.94
23176;BME280;19910;42.652;23.332;2023-04-05T03:30:30;94150.56;;;0.32;90.97
23176;BME280;19910;42.652;23.332;2023-04-05T03:32:56;94161.16;;;0.42;91.19
23176;BME280;19910;42.652;23.332;2023-04-05T03:35:26;94159.63;;;0.36;91.96
23176;BME280;19910;42.652;23.332;2023-04-05T03:37:53;94169.22;;;0.32;92.40
23176;BME280;19910;42.652;23.332;2023-04-05T03:40:21;94166.09;;;0.20;94.22
23176;BME280;19910;42.652;23.332;2023-04-05T03:42:48;94153.09;;;0.08;94.15
23176;BME280;19910;42.652;23.332;2023-04-05T03:45:16;94174.59;;;0.22;94.47
23176;BME280;19910;42.652;23.332;2023-04-05T03:47:43;94173.50;;;0.28;94.45
23176;BME280;19910;42.652;23.332;2023-04-05T03:50:11;94167.13;;;0.24;94.09
23176;BME280;19910;42.652;23.332;2023-04-05T03:52:37;94182.84;;;0.20;94.12
23176;BME280;19910;42.652;23.332;2023-04-05T03:55:05;94177.25;;;0.22;94.58
23176;BME280;19910;42.652;23.332;2023-04-05T03:57:32;94179.94;;;0.22;95.02
23176;BME280;19910;42.652;23.332;2023-04-05T03:59:59;94182.59;;;0.17;96.46
23176;BME280;19910;42.652;23.332;2023-04-05T04:02:27;94190.63;;;0.12;97.46
23176;BME280;19910;42.652;23.332;2023-04-05T04:04:54;94196.97;;;0.16;98.07
23176;BME280;19910;42.652;23.332;2023-04-05T04:07:20;94193.31;;;0.07;98.45
23176;BME280;19910;42.652;23.332;2023-04-05T04:09:47;94195.44;;;0.05;98.49
23176;BME280;19910;42.652;23.332;2023-04-05T04:12:14;94196.19;;;0.15;99.15
23176;BME280;19910;42.652;23.332;2023-04-05T04:14:40;94191.44;;;0.12;98.67
23176;BME280;19910;42.652;23.332;2023-04-05T04:17:07;94195.38;;;0.15;98.02
23176;BME280;19910;42.652;23.332;2023-04-05T04:19:35;94203.69;;;0.13;97.52
23176;BME280;19910;42.652;23.332;2023-04-05T04:22:02;94193.50;;;0.20;97.52
23176;BME280;19910;42.652;23.332;2023-04-05T04:24:29;94197.50;;;0.23;97.19
23176;BME280;19910;42.652;23.332;2023-04-05T04:26:56;94197.47;;;0.28;97.45
23176;BME280;19910;42.652;23.332;2023-04-05T04:29:23;94196.16;;;0.25;97.04
23176;BME280;19910;42.652;23.332;2023-04-05T04:31:55;94193.78;;;0.24;96.91
23176;BME280;19910;42.652;23.332;2023-04-05T04:34:22;94193.44;;;0.30;97.06
23176;BME280;19910;42.652;23.332;2023-04-05T04:36:51;94193.44;;;0.30;96.68
23176;BME280;19910;42.652;23.332;2023-04-05T04:39:26;94196.38;;;0.29;96.09
23176;BME280;19910;42.652;23.332;2023-04-05T04:41:56;94199.03;;;0.34;95.49
23176;BME280;19910;42.652;23.332;2023-04-05T04:44:23;94196.28;;;0.49;94.44
23176;BME280;19910;42.652;23.332;2023-04-05T04:46:55;94191.44;;;0.56;94.36
23176;BME280;19910;42.652;23.332;2023-04-05T04:49:22;94201.56;;;0.59;93.80
23176;BME280;19910;42.652;23.332;2023-04-05T04:51:50;94205.81;;;0.65;91.60
23176;BME280;19910;42.652;23.332;2023-04-05T04:54:17;94205.19;;;0.74;90.93
23176;BME280;19910;42.652;23.332;2023-04-05T04:56:46;94198.19;;;0.83;89.98
23176;BME280;19910;42.652;23.332;2023-04-05T04:59:13;94196.34;;;0.83;89.05
23176;BME280;19910;42.652;23.332;2023-04-05T05:01:40;94205.38;;;0.87;89.38
23176;BME280;19910;42.652;23.332;2023-04-05T05:04:10;94198.81;;;0.75;88.65
23176;BME280;19910;42.652;23.332;2023-04-05T05:06:36;94212.72;;;0.66;89.42
23176;BME280;19910;42.652;23.332;2023-04-05T05:09:04;94210.00;;;0.77;90.40
23176;BME280;19910;42.652;23.332;2023-04-05T05:11:32;94211.59;;;0.73;89.75
23176;BME280;19910;42.652;23.332;2023-04-05T05:13:58;94210.63;;;0.58;91.00
23176;BME280;19910;42.652;23.332;2023-04-05T05:16:25;94213.56;;;0.57;91.59
23176;BME280;19910;42.652;23.332;2023-04-05T05:18:52;94215.34;;;0.71;91.56
23176;BME280;19910;42.652;23.332;2023-04-05T05:21:19;94223.06;;;0.73;91.71
23176;BME280;19910;42.652;23.332;2023-04-05T05:23:46;94215.41;;;0.61;91.83
23176;BME280;19910;42.652;23.332;2023-04-05T05:26:14;94219.69;;;0.57;92.03
23176;BME280;19910;42.652;23.332;2023-04-05T05:28:41;94221.22;;;0.68;92.15
23176;BME280;19910;42.652;23.332;2023-04-05T05:31:08;94213.75;;;0.70;91.67
23176;BME280;19910;42.652;23.332;2023-04-05T05:33:34;94209.00;;;0.67;91.28
23176;BME280;19910;42.652;23.332;2023-04-05T05:36:01;94208.47;;;0.60;91.46
23176;BME280;19910;42.652;23.332;2023-04-05T05:38:28;94197.81;;;0.65;92.14
23176;BME280;19910;42.652;23.332;2023-04-05T05:40:55;94201.47;;;0.75;92.32
23176;BME280;19910;42.652;23.332;2023-04-05T05:43:24;94207.78;;;0.84;91.82
23176;BME280;19910;42.652;23.332;2023-04-05T05:45:51;94213.13;;;0.84;90.65
23176;BME280;19910;42.652;23.332;2023-04-05T05:48:17;94207.03;;;1.17;89.57
23176;BME280;19910;42.652;23.332;2023-04-05T05:50:44;94211.16;;;1.33;87.10
23176;BME280;19910;42.652;23.332;2023-04-05T05:53:13;94200.56;;;1.23;87.31
23176;BME280;19910;42.652;23.332;2023-04-05T05:55:40;94200.53;;;1.28;89.42
23176;BME280;19910;42.652;23.332;2023-04-05T05:58:07;94193.84;;;1.31;88.38
23176;BME280;19910;42.652;23.332;2023-04-05T06:00:35;94196.28;;;1.56;86.92
23176;BME280;19910;42.652;23.332;2023-04-05T06:03:03;94198.41;;;1.83;85.78
23176;BME280;19910;42.652;23.332;2023-04-05T06:05:30;94197.38;;;1.79;85.80
23176;BME280;19910;42.652;23.332;2023-04-05T06:07:57;94209.09;;;1.83;84.36
23176;BME280;19910;42.652;23.332;2023-04-05T06:10:24;94205.38;;;1.79;82.19
23176;BME280;19910;42.652;23.332;2023-04-05T06:12:51;94200.34;;;2.01;81.22
23176;BME280;19910;42.652;23.332;2023-04-05T06:15:18;94209.88;;;2.07;78.59
23176;BME280;19910;42.652;23.332;2023-04-05T06:17:46;94213.19;;;1.99;79.20
23176;BME280;19910;42.652;23.332;2023-04-05T06:20:13;94217.97;;;2.02;79.31
23176;BME280;19910;42.652;23.332;2023-04-05T06:22:39;94202.03;;;1.92;79.56
23176;BME280;19910;42.652;23.332;2023-04-05T06:25:07;94216.94;;;1.98;79.77
23176;BME280;19910;42.652;23.332;2023-04-05T06:27:36;94215.69;;;2.14;79.54
23176;BME280;19910;42.652;23.332;2023-04-05T06:30:03;94207.38;;;1.92;78.67
23176;BME280;19910;42.652;23.332;2023-04-05T06:32:30;94216.13;;;2.22;79.13
23176;BME280;19910;42.652;23.332;2023-04-05T06:34:59;94222.38;;;2.36;79.27
23176;BME280;19910;42.652;23.332;2023-04-05T06:37:26;94220.59;;;2.50;78.70
23176;BME280;19910;42.652;23.332;2023-04-05T06:39:52;94223.25;;;2.50;77.58
23176;BME280;19910;42.652;23.332;2023-04-05T06:42:19;94221.09;;;2.52;78.51
23176;BME280;19910;42.652;23.332;2023-04-05T06:44:46;94234.22;;;2.72;77.61
23176;BME280;19910;42.652;23.332;2023-04-05T06:47:13;94222.19;;;2.89;76.18
23176;BME280;19910;42.652;23.332;2023-04-05T06:49:40;94230.94;;;2.75;75.94
23176;BME280;19910;42.652;23.332;2023-04-05T06:52:08;94225.59;;;2.75;74.16
23176;BME280;19910;42.652;23.332;2023-04-05T06:54:36;94239.34;;;2.69;74.01
23176;BME280;19910;42.652;23.332;2023-04-05T06:57:03;94241.53;;;2.85;73.97
23176;BME280;19910;42.652;23.332;2023-04-05T06:59:30;94247.69;;;2.62;74.29
23176;BME280;19910;42.652;23.332;2023-04-05T07:01:56;94254.19;;;2.99;73.99
23176;BME280;19910;42.652;23.332;2023-04-05T07:04:23;94247.22;;;3.16;72.98
23176;BME280;19910;42.652;23.332;2023-04-05T07:06:51;94255.25;;;3.35;72.54
23176;BME280;19910;42.652;23.332;2023-04-05T07:09:19;94251.19;;;3.19;72.07
23176;BME280;19910;42.652;23.332;2023-04-05T07:11:48;94259.03;;;2.97;72.05
23176;BME280;19910;42.652;23.332;2023-04-05T07:14:15;94271.72;;;2.67;72.92
23176;BME280;19910;42.652;23.332;2023-04-05T07:16:42;94265.78;;;2.70;72.68
23176;BME280;19910;42.652;23.332;2023-04-05T07:19:08;94262.59;;;2.68;72.91
23176;BME280;19910;42.652;23.332;2023-04-05T07:21:35;94268.56;;;2.60;73.55
23176;BME280;19910;42.652;23.332;2023-04-05T07:24:02;94283.63;;;2.75;73.90
23176;BME280;19910;42.652;23.332;2023-04-05T07:26:30;94269.44;;;2.56;73.91
23176;BME280;19910;42.652;23.332;2023-04-05T07:28:59;94269.91;;;2.39;73.85
23176;BME280;19910;42.652;23.332;2023-04-05T07:31:26;94271.16;;;2.46;72.92
23176;BME280;19910;42.652;23.332;2023-04-05T07:33:52;94281.00;;;2.27;73.88
23176;BME280;19910;42.652;23.332;2023-04-05T07:36:19;94270.81;;;2.53;73.69
23176;BME280;19910;42.652;23.332;2023-04-05T07:38:46;94269.41;;;2.79;73.31
23176;BME280;19910;42.652;23.332;2023-04-05T07:41:13;94272.31;;;3.02;72.80
23176;BME280;19910;42.652;23.332;2023-04-05T07:43:42;94284.03;;;2.44;73.81
23176;BME280;19910;42.652;23.332;2023-04-05T07:46:09;94280.47;;;2.49;74.29
23176;BME280;19910;42.652;23.332;2023-04-05T07:48:36;94278.97;;;2.62;73.67
23176;BME280;19910;42.652;23.332;2023-04-05T07:51:04;94282.53;;;2.57;73.34
23176;BME280;19910;42.652;23.332;2023-04-05T07:53:31;94291.88;;;2.60;73.69
23176;BME280;19910;42.652;23.332;2023-04-05T07:56:02;94284.59;;;2.84;73.68
23176;BME280;19910;42.652;23.332;2023-04-05T07:58:29;94289.22;;;2.78;74.10
23176;BME280;19910;42.652;23.332;2023-04-05T08:00:59;94299.94;;;2.55;73.69
23176;BME280;19910;42.652;23.332;2023-04-05T08:03:27;94292.31;;;2.43;73.76
23176;BME280;19910;42.652;23.332;2023-04-05T08:05:54;94300.59;;;2.65;74.07
23176;BME280;19910;42.652;23.332;2023-04-05T08:08:21;94298.91;;;2.50;73.98
23176;BME280;19910;42.652;23.332;2023-04-05T08:10:49;94296.28;;;2.69;74.67
23176;BME280;19910;42.652;23.332;2023-04-05T08:13:16;94306.34;;;2.77;74.28
23176;BME280;19910;42.652;23.332;2023-04-05T08:15:42;94308.56;;;2.70;74.02
23176;BME280;19910;42.652;23.332;2023-04-05T08:18:11;94303.44;;;2.74;74.53
23176;BME280;19910;42.652;23.332;2023-04-05T08:20:38;94314.94;;;2.74;73.82
23176;BME280;19910;42.652;23.332;2023-04-05T08:23:05;94314.94;;;2.50;74.49
23176;BME280;19910;42.652;23.332;2023-04-05T08:25:32;94322.69;;;2.52;74.89
23176;BME280;19910;42.652;23.332;2023-04-05T08:27:59;94313.47;;;2.63;74.55
23176;BME280;19910;42.652;23.332;2023-04-05T08:30:25;94309.66;;;2.69;74.82
23176;BME280;19910;42.652;23.332;2023-04-05T08:32:52;94315.63;;;2.61;74.89
23176;BME280;19910;42.652;23.332;2023-04-05T08:35:20;94316.28;;;2.96;74.14
23176;BME280;19910;42.652;23.332;2023-04-05T08:37:47;94315.84;;;3.07;74.38
23176;BME280;19910;42.652;23.332;2023-04-05T08:40:14;94330.78;;;2.90;74.46
23176;BME280;19910;42.652;23.332;2023-04-05T08:42:45;94314.94;;;2.74;73.08
23176;BME280;19910;42.652;23.332;2023-04-05T08:45:16;94346.56;;;2.67;75.03
23176;BME280;19910;42.652;23.332;2023-04-05T08:47:44;94325.41;;;2.71;74.95
23176;BME280;19910;42.652;23.332;2023-04-05T08:50:11;94315.81;;;2.46;75.89
23176;BME280;19910;42.652;23.332;2023-04-05T08:52:40;94326.81;;;2.63;77.02
23176;BME280;19910;42.652;23.332;2023-04-05T08:55:08;94328.03;;;2.52;75.79
23176;BME280;19910;42.652;23.332;2023-04-05T08:57:36;94335.41;;;2.60;75.09
23176;BME280;19910;42.652;23.332;2023-04-05T09:00:07;94341.63;;;2.79;74.75
23176;BME280;19910;42.652;23.332;2023-04-05T09:02:34;94345.94;;;3.18;73.02
23176;BME280;19910;42.652;23.332;2023-04-05T09:05:01;94343.47;;;3.03;72.90
23176;BME280;19910;42.652;23.332;2023-04-05T09:07:30;94357.38;;;2.81;72.79
23176;BME280;19910;42.652;23.332;2023-04-05T09:09:59;94345.50;;;2.68;72.52
23176;BME280;19910;42.652;23.332;2023-04-05T09:12:27;94346.72;;;3.00;73.79
23176;BME280;19910;42.652;23.332;2023-04-05T09:14:54;94348.44;;;2.91;74.76
23176;BME280;19910;42.652;23.332;2023-04-05T09:17:21;94341.31;;;3.05;75.73
23176;BME280;19910;42.652;23.332;2023-04-05T09:19:48;94342.19;;;3.19;73.92
23176;BME280;19910;42.652;23.332;2023-04-05T09:22:15;94350.22;;;3.56;73.82
23176;BME280;19910;42.652;23.332;2023-04-05T09:24:44;94352.75;;;3.29;72.68
23176;BME280;19910;42.652;23.332;2023-04-05T09:27:13;94349.97;;;2.97;75.83
23176;BME280;19910;42.652;23.332;2023-04-05T09:29:43;94337.81;;;2.85;75.90
23176;BME280;19910;42.652;23.332;2023-04-05T09:32:11;94339.09;;;3.12;75.98
23176;BME280;19910;42.652;23.332;2023-04-05T09:34:39;94333.00;;;3.44;75.15
23176;BME280;19910;42.652;23.332;2023-04-05T09:37:11;94339.03;;;3.54;75.45
23176;BME280;19910;42.652;23.332;2023-04-05T09:39:39;94328.75;;;2.81;74.45
23176;BME280;19910;42.652;23.332;2023-04-05T09:42:07;94333.72;;;2.69;75.45
23176;BME280;19910;42.652;23.332;2023-04-05T09:44:55;94330.91;;;3.22;75.65
23176;BME280;19910;42.652;23.332;2023-04-05T09:47:23;94340.97;;;2.88;74.89
23176;BME280;19910;42.652;23.332;2023-04-05T09:49:51;94329.31;;;3.21;75.61
23176;BME280;19910;42.652;23.332;2023-04-05T09:52:20;94340.59;;;3.37;75.08
23176;BME280;19910;42.652;23.332;2023-04-05T09:54:47;94330.78;;;3.51;73.70
23176;BME280;19910;42.652;23.332;2023-04-05T09:57:15;94336.66;;;2.92;74.96
23176;BME280;19910;42.652;23.332;2023-04-05T09:59:43;94337.47;;;3.11;74.50
23176;BME280;19910;42.652;23.332;2023-04-05T10:02:11;94347.59;;;2.71;73.91
23176;BME280;19910;42.652;23.332;2023-04-05T10:04:38;94342.25;;;2.71;73.77
23176;BME280;19910;42.652;23.332;2023-04-05T10:07:07;94350.59;;;3.12;73.44
23176;BME280;19910;42.652;23.332;2023-04-05T10:09:35;94337.91;;;2.99;72.95
23176;BME280;19910;42.652;23.332;2023-04-05T10:12:02;94347.63;;;3.14;72.75
23176;BME280;19910;42.652;23.332;2023-04-05T10:14:29;94340.06;;;2.73;73.20
23176;BME280;19910;42.652;23.332;2023-04-05T10:17:06;94349.88;;;2.83;73.50
23176;BME280;19910;42.652;23.332;2023-04-05T10:19:49;94342.81;;;2.44;73.93
23176;BME280;19910;42.652;23.332;2023-04-05T10:22:22;94347.81;;;2.99;73.28
23176;BME280;19910;42.652;23.332;2023-04-05T10:24:53;94339.41;;;2.63;73.05
23176;BME280;19910;42.652;23.332;2023-04-05T10:27:24;94343.03;;;2.96;72.48
23176;BME280;19910;42.652;23.332;2023-04-05T10:30:02;94344.53;;;2.83;72.29
23176;BME280;19910;42.652;23.332;2023-04-05T10:32:37;94342.56;;;3.12;71.69
23176;BME280;19910;42.652;23.332;2023-04-05T10:35:15;94348.00;;;3.26;70.63
23176;BME280;19910;42.652;23.332;2023-04-05T10:37:52;94350.34;;;3.09;70.19
23176;BME280;19910;42.652;23.332;2023-04-05T10:40:20;94347.81;;;2.99;71.17
23176;BME280;19910;42.652;23.332;2023-04-05T10:42:47;94348.22;;;2.63;71.64
23176;BME280;19910;42.652;23.332;2023-04-05T10:45:16;94347.72;;;2.85;72.14
23176;BME280;19910;42.652;23.332;2023-04-05T10:47:48;94343.47;;;3.03;71.27
23176;BME280;19910;42.652;23.332;2023-04-05T10:50:21;94352.41;;;2.93;71.10
23176;BME280;19910;42.652;23.332;2023-04-05T10:52:49;94344.38;;;2.93;71.03
23176;BME280;19910;42.652;23.332;2023-04-05T10:55:16;94352.03;;;2.81;70.87
23176;BME280;19910;42.652;23.332;2023-04-05T10:57:44;94359.75;;;3.06;70.39
23176;BME280;19910;42.652;23.332;2023-04-05T11:00:12;94354.06;;;3.13;70.33
23176;BME280;19910;42.652;23.332;2023-04-05T11:02:40;94369.88;;;3.28;70.53
23176;BME280;19910;42.652;23.332;2023-04-05T11:05:29;94363.50;;;3.05;69.95
23176;BME280;19910;42.652;23.332;2023-04-05T11:07:59;94366.22;;;3.24;70.09
23176;BME280;19910;42.652;23.332;2023-04-05T11:10:28;94359.59;;;3.16;70.28
23176;BME280;19910;42.652;23.332;2023-04-05T11:13:06;94367.81;;;3.25;70.32
23176;BME280;19910;42.652;23.332;2023-04-05T11:15:34;94369.75;;;3.19;70.06
23176;BME280;19910;42.652;23.332;2023-04-05T11:18:02;94380.00;;;3.12;70.69
23176;BME280;19910;42.652;23.332;2023-04-05T11:20:44;94378.50;;;2.82;71.38
23176;BME280;19910;42.652;23.332;2023-04-05T11:23:13;94361.69;;;3.01;70.90
23176;BME280;19910;42.652;23.332;2023-04-05T11:25:45;94358.56;;;2.94;72.45
23176;BME280;19910;42.652;23.332;2023-04-05T11:28:22;94363.16;;;3.12;69.77
23176;BME280;19910;42.652;23.332;2023-04-05T11:30:50;94369.25;;;3.36;70.68
23176;BME280;19910;42.652;23.332;2023-04-05T11:33:37;94372.19;;;3.16;69.93
23176;BME280;19910;42.652;23.332;2023-04-05T11:36:06;94366.06;;;3.34;70.39
23176;BME280;19910;42.652;23.332;2023-04-05T11:38:34;94360.56;;;3.26;70.68
23176;BME280;19910;42.652;23.332;2023-04-05T11:41:11;94366.00;;;3.39;70.47
23176;BME280;19910;42.652;23.332;2023-04-05T11:43:41;94376.41;;;3.22;70.74
23176;BME280;19910;42.652;23.332;2023-04-05T11:46:08;94358.97;;;3.62;69.72
23176;BME280;19910;42.652;23.332;2023-04-05T11:48:35;94367.81;;;3.63;69.24
23176;BME280;19910;42.652;23.332;2023-04-05T11:51:07;94363.75;;;3.46;69.86
23176;BME280;19910;42.652;23.332;2023-04-05T11:53:34;94361.44;;;3.40;69.34
23176;BME280;19910;42.652;23.332;2023-04-05T11:56:06;94367.38;;;3.55;68.97
23176;BME280;19910;42.652;23.332;2023-04-05T11:58:33;94351.03;;;3.38;69.71
23176;BME280;19910;42.652;23.332;2023-04-05T12:01:01;94356.50;;;3.28;70.02
23176;BME280;19910;42.652;23.332;2023-04-05T12:03:29;94350.88;;;3.30;70.01
23176;BME280;19910;42.652;23.332;2023-04-05T12:05:57;94354.47;;;3.20;70.54
23176;BME280;19910;42.652;23.332;2023-04-05T12:08:38;94363.34;;;3.39;70.02
23176;BME280;19910;42.652;23.332;2023-04-05T12:11:06;94362.06;;;3.69;70.54
23176;BME280;19910;42.652;23.332;2023-04-05T12:13:34;94361.16;;;3.41;69.25
23176;BME280;19910;42.652;23.332;2023-04-05T12:16:02;94356.25;;;3.48;70.10
23176;BME280;19910;42.652;23.332;2023-04-05T12:18:31;94354.44;;;3.25;71.04
23176;BME280;19910;42.652;23.332;2023-04-05T12:20:58;94358.56;;;3.55;69.75
23176;BME280;19910;42.652;23.332;2023-04-05T12:23:26;94348.16;;;3.86;70.04
23176;BME280;19910;42.652;23.332;2023-04-05T12:25:55;94355.13;;;3.87;70.02
23176;BME280;19910;42.652;23.332;2023-04-05T12:28:22;94362.31;;;3.73;70.61
23176;BME280;19910;42.652;23.332;2023-04-05T12:30:49;94348.78;;;3.64;70.54
23176;BME280;19910;42.652;23.332;2023-04-05T12:33:25;94346.50;;;3.71;71.01
23176;BME280;19910;42.652;23.332;2023-04-05T12:35:53;94350.38;;;3.46;72.40
23176;BME280;19910;42.652;23.332;2023-04-05T12:38:20;94353.28;;;3.69;71.99
23176;BME280;19910;42.652;23.332;2023-04-05T12:40:46;94353.72;;;3.38;72.66
23176;BME280;19910;42.652;23.332;2023-04-05T12:43:15;94356.94;;;3.73;72.03
23176;BME280;19910;42.652;23.332;2023-04-05T12:45:44;94353.63;;;3.81;71.66
23176;BME280;19910;42.652;23.332;2023-04-05T12:48:12;94350.81;;;4.05;70.47
23176;BME280;19910;42.652;23.332;2023-04-05T12:50:42;94355.63;;;4.21;70.66
23176;BME280;19910;42.652;23.332;2023-04-05T12:53:16;94351.41;;;3.83;70.54
23176;BME280;19910;42.652;23.332;2023-04-05T12:55:50;94358.00;;;4.09;70.03
23176;BME280;19910;42.652;23.332;2023-04-05T12:58:18;94352.69;;;4.37;70.72
23176;BME280;19910;42.652;23.332;2023-04-05T13:00:45;94371.03;;;4.29;69.85
23176;BME280;19910;42.652;23.332;2023-04-05T13:03:17;94370.72;;;3.47;70.76
23176;BME280;19910;42.652;23.332;2023-04-05T13:05:45;94364.38;;;3.19;72.19
23176;BME280;19910;42.652;23.332;2023-04-05T13:08:12;94368.00;;;3.10;71.58